Etusivu
METAR-TAF:

METAR-TAF

Lentoasemat :

Grand Marais, Minnesota, Yhdysvallat

Leveyspiiri: 47-50N, Pituuspiiri: 090-23W, korkeus merenpinnasta: 186 m

Tämänhetkinen sää

Tämä raportti tehtiin 18 minuuttia sitten, kello 11.56 UTC
Tuuli 12 kn etelästä/lounaasta
Lämpötila -5°C
Kosteus 73%
Ilmanpaine 1013 hPa

METAR: KGNA 131156Z AUTO 21012KT M05/M09 A2991 RMK AO1 SLP145 P0001 60001 7//// T10501089 11044 21056 56021

Aika: 06:14 (12:14 UTC)


TAF: puuttuu

Säähavainnot ja -ennusteet yli 4000 lentoasemalta (METAR- ja TAF-raportit).

Käytössä olevat sääasemat on merkitty karttaan keltaisilla ja punaisilla pisteillä.

Aseta hiiri pisteen päälle nähdäksesi sääaseman nimen.

Klikkaa sitten nähdäksesi säähavainnot ja -ennusteet.

Kartan vaihtaminen: klikkaa mustalla rastilla varustettuja vihreitä pisteitä, niin voit zoomata sisään; viivalla varustettua vihreää pistettä, niin voit zoomata ulos tai vihreitä nuolia, niin pääset viereisille kartoille.


METAR-TAF: